Pagrindinis puslapis
METAR-TAF:

METAR-TAF

Oro uostai :

Donau

Neuburg, Vokietija

platuma: 48-43N, ilguma: 011-13E, Aukštis: 380 m

Dabartinis oras

Ataskaita buvo paskelbta 1 valandą ir 10 minutes, ne 08:20 UTC
Vėjas 6 kt iš Rytų
Temperatūra 12°C
Drėgmė 54%
Slėgis 1029 hPa
Matomumas 10 km arba daugiau
Su prošvaistėmis ne aukštis 32000 ft

METAR: ETSN 200820Z 08006KT 9999 BKN320 12/03 Q1029 BLU+BLU+

Laikas: 11:30 (09:30 UTC)

Prognozė

Ataskaita buvo paskelbta 1 valandą ir 59 minutes, ne 07:31 UTC
Prognozė galioja nuo 20 metu 08 UTC su 20 metu 17 UTC
Vėjas 6 kt iš Rytų/Šiaurės Rytų
Matomumas 10 km arba daugiau
Išsisklaidę debesys ne aukštis 30000 ft

TAF: ETSN 200731Z 2008/2017 07006KT 9999 NSW SCT300 BY ETGL

Orai ataskaitas ir orų prognozės (METAR, TAF).

turimą stotys yra geltonos ir raudonos taškus žemėlapyje.

Perkelti pele per norėdami pamatyti stoties vardą.

Tada spustelėkite, norėdami matyti oro stebėjimo ir prognozės.

Norėdami pakeisti žemėlapį: spustelėkite ant žalios mygtukų su juodo kryžiaus žemyn,; žalią mygtuką su brūkšneliu, jei norite nutolinti; arba žalių rodyklių gretimoms žemėlapius.


METAR-TAF: